createdAt,value
2022-10-19T00:00:29.195Z,1.30
2022-10-19T00:02:55.601Z,1.48
2022-10-19T00:05:22.069Z,1.38
2022-10-19T00:07:48.481Z,1.60
2022-10-19T00:10:14.901Z,1.73
2022-10-19T00:12:41.310Z,1.35
2022-10-19T00:15:08.292Z,1.63
2022-10-19T00:17:35.534Z,1.48
2022-10-19T00:20:02.179Z,1.50
2022-10-19T00:22:28.586Z,1.58
2022-10-19T00:24:56.935Z,1.42
2022-10-19T00:27:23.353Z,1.63
2022-10-19T00:29:49.725Z,1.75
2022-10-19T00:32:16.168Z,1.50
2022-10-19T00:34:42.608Z,1.70
2022-10-19T00:37:08.983Z,1.75
2022-10-19T00:39:35.424Z,1.88
2022-10-19T00:42:02.025Z,1.58
2022-10-19T00:44:28.424Z,2.03
2022-10-19T00:46:59.012Z,1.75
2022-10-19T00:49:39.334Z,1.50
2022-10-19T00:52:14.742Z,1.60
2022-10-19T00:54:43.004Z,1.70
2022-10-19T00:57:10.529Z,1.33
2022-10-19T00:59:39.719Z,1.63
2022-10-19T01:02:07.079Z,1.90
2022-10-19T01:04:37.934Z,1.65
2022-10-19T01:07:06.859Z,1.70
2022-10-19T01:09:33.310Z,2.10
2022-10-19T01:12:17.332Z,1.83
2022-10-19T01:15:09.953Z,1.50
2022-10-19T01:17:51.396Z,1.92
2022-10-19T01:20:33.708Z,1.63
2022-10-19T01:23:14.889Z,1.80
2022-10-19T01:25:44.461Z,1.92
2022-10-19T01:28:44.484Z,2.00
2022-10-19T01:31:24.661Z,1.95
2022-10-19T01:34:13.520Z,1.60
2022-10-19T01:36:42.423Z,1.90
2022-10-19T01:39:17.601Z,1.73
2022-10-19T01:42:08.429Z,1.45
2022-10-19T01:44:37.723Z,1.77
2022-10-19T01:47:10.012Z,1.70
2022-10-19T01:49:48.119Z,1.70
2022-10-19T01:52:18.848Z,1.65
2022-10-19T01:54:49.602Z,1.70
2022-10-19T01:57:22.781Z,1.73
2022-10-19T01:59:49.972Z,2.40
2022-10-19T02:02:18.505Z,1.80
2022-10-19T02:04:46.904Z,2.00
2022-10-19T02:07:13.616Z,1.60
2022-10-19T02:09:40.063Z,1.75
2022-10-19T02:12:10.933Z,1.52
2022-10-19T02:14:43.247Z,1.75
2022-10-19T02:17:13.942Z,1.67
2022-10-19T02:19:40.987Z,1.70
2022-10-19T02:22:08.531Z,1.50
2022-10-19T02:24:34.942Z,1.60
2022-10-19T02:27:05.444Z,2.20
2022-10-19T02:29:33.722Z,1.65
2022-10-19T02:32:01.150Z,1.50
2022-10-19T02:34:27.768Z,1.65
2022-10-19T02:36:55.267Z,1.42
2022-10-19T02:39:21.857Z,1.70
2022-10-19T02:42:11.875Z,1.88
2022-10-19T02:44:56.037Z,1.50
2022-10-19T02:47:28.337Z,1.50
2022-10-19T02:49:54.761Z,2.88
2022-10-19T02:52:21.178Z,1.67
2022-10-19T02:54:48.060Z,1.83
2022-10-19T02:57:17.850Z,1.67
2022-10-19T02:59:44.759Z,1.67
2022-10-19T03:02:11.250Z,1.73
2022-10-19T03:04:37.728Z,1.88
2022-10-19T03:07:04.243Z,1.45
2022-10-19T03:09:30.660Z,1.70
2022-10-19T03:11:57.085Z,1.80
2022-10-19T03:14:23.534Z,1.48
2022-10-19T03:16:50.063Z,1.70
2022-10-19T03:19:16.503Z,1.60
2022-10-19T03:21:42.938Z,1.70
2022-10-19T03:24:09.330Z,1.65
2022-10-19T03:26:35.789Z,1.80
2022-10-19T03:29:02.286Z,1.48
2022-10-19T03:31:28.718Z,1.70
2022-10-19T03:33:55.482Z,1.88
2022-10-19T03:36:24.363Z,1.65
2022-10-19T03:38:56.376Z,1.33
2022-10-19T03:41:24.743Z,1.42
2022-10-19T03:43:51.392Z,1.63
2022-10-19T03:46:17.926Z,1.30
2022-10-19T03:48:44.825Z,1.65
2022-10-19T03:51:19.893Z,1.23
2022-10-19T03:53:47.100Z,1.52
2022-10-19T03:56:16.325Z,2.67
2022-10-19T03:58:44.700Z,4.82
2022-10-19T04:01:17.647Z,2.45
2022-10-19T04:03:44.217Z,4.70
2022-10-19T04:06:16.952Z,3.58
2022-10-19T04:08:48.754Z,2.30
2022-10-19T04:11:17.272Z,1.65
2022-10-19T04:13:43.763Z,1.53
2022-10-19T04:16:13.814Z,1.80
2022-10-19T04:18:40.238Z,1.50
2022-10-19T04:21:07.222Z,1.75
2022-10-19T04:23:35.988Z,1.50
2022-10-19T04:26:05.049Z,1.50
2022-10-19T04:28:31.761Z,1.55
2022-10-19T04:31:01.957Z,1.40
2022-10-19T04:33:28.389Z,1.85
2022-10-19T04:35:59.264Z,1.60
2022-10-19T04:38:26.111Z,1.88
2022-10-19T04:40:52.845Z,1.60
2022-10-19T04:43:19.270Z,1.67
2022-10-19T04:45:45.665Z,1.70
2022-10-19T04:48:14.996Z,1.50
2022-10-19T04:50:41.760Z,1.77
2022-10-19T04:53:08.242Z,2.05
2022-10-19T04:55:34.673Z,1.60
2022-10-19T04:58:01.163Z,1.60
2022-10-19T05:00:27.639Z,1.70
2022-10-19T05:02:54.042Z,1.60
2022-10-19T05:05:20.564Z,1.60
2022-10-19T05:07:48.959Z,1.50
2022-10-19T05:10:15.478Z,1.50
2022-10-19T05:12:41.987Z,1.70
2022-10-19T05:15:09.001Z,1.50
2022-10-19T05:17:35.745Z,1.30
2022-10-19T05:20:02.365Z,1.80
2022-10-19T05:22:28.764Z,1.77
2022-10-19T05:24:58.065Z,1.75
2022-10-19T05:27:24.927Z,1.48
2022-10-19T05:29:51.377Z,2.90
2022-10-19T05:32:17.877Z,1.50
2022-10-19T05:34:44.273Z,1.85
2022-10-19T05:37:10.770Z,1.75
2022-10-19T05:39:37.210Z,1.65
2022-10-19T05:42:03.853Z,1.40
2022-10-19T05:44:30.380Z,1.55
2022-10-19T05:46:56.963Z,1.50
2022-10-19T05:49:23.452Z,1.70
2022-10-19T05:51:50.580Z,1.67
2022-10-19T05:54:17.356Z,1.42
2022-10-19T05:56:44.669Z,1.58
2022-10-19T05:59:16.691Z,1.50
2022-10-19T06:01:43.315Z,1.50
2022-10-19T06:04:10.790Z,1.58
2022-10-19T06:06:37.371Z,1.80
2022-10-19T06:09:03.923Z,1.40
2022-10-19T06:11:34.967Z,1.90
2022-10-19T06:14:04.044Z,1.67
2022-10-19T06:16:31.850Z,1.80
2022-10-19T06:18:59.448Z,1.45
2022-10-19T06:21:29.414Z,1.70
2022-10-19T06:23:58.642Z,1.50
2022-10-19T06:26:26.109Z,1.55
2022-10-19T06:28:55.936Z,1.65
2022-10-19T06:31:22.302Z,1.45
2022-10-19T06:33:49.626Z,3.60
2022-10-19T06:36:20.439Z,1.75
2022-10-19T06:38:47.051Z,1.45
2022-10-19T06:41:13.611Z,1.27
2022-10-19T06:43:40.408Z,1.75
2022-10-19T06:46:12.362Z,3.38
2022-10-19T06:48:38.899Z,3.45
2022-10-19T06:51:07.625Z,2.53
2022-10-19T06:53:35.409Z,1.50
2022-10-19T06:56:04.462Z,1.50
2022-10-19T06:58:31.135Z,2.03
2022-10-19T07:01:02.053Z,3.40
2022-10-19T07:03:29.907Z,3.67
2022-10-19T07:05:58.648Z,2.65
2022-10-19T07:08:26.539Z,1.83
2022-10-19T07:10:54.749Z,1.80
2022-10-19T07:13:21.684Z,1.50
2022-10-19T07:15:48.492Z,1.98
2022-10-19T07:18:15.191Z,1.63
2022-10-19T07:20:42.004Z,1.77
2022-10-19T07:23:08.454Z,2.90
2022-10-19T07:25:36.503Z,1.77
2022-10-19T07:28:03.060Z,3.70
2022-10-19T07:30:29.471Z,3.15
2022-10-19T07:32:55.879Z,1.50
2022-10-19T07:35:22.280Z,1.48
2022-10-19T07:37:48.696Z,3.50
2022-10-19T07:40:15.289Z,1.73
2022-10-19T07:42:41.663Z,1.30
2022-10-19T07:45:08.310Z,1.20
2022-10-19T07:47:35.043Z,1.60
2022-10-19T07:50:01.564Z,1.65
2022-10-19T07:52:29.129Z,3.60
2022-10-19T07:54:56.317Z,4.93
2022-10-19T07:57:22.773Z,5.45
2022-10-19T07:59:49.157Z,2.60
2022-10-19T08:02:17.028Z,2.03
2022-10-19T08:05:02.793Z,2.25
2022-10-19T08:07:33.690Z,1.83
2022-10-19T08:12:26.497Z,1.48
2022-10-19T08:14:53.796Z,1.30
2022-10-19T08:17:20.279Z,1.40
2022-10-19T08:19:47.023Z,1.73
2022-10-19T08:22:13.725Z,1.90
2022-10-19T08:24:40.128Z,2.03
2022-10-19T08:27:06.543Z,1.70
2022-10-19T08:29:32.943Z,4.30
2022-10-19T08:31:59.510Z,1.52
2022-10-19T08:34:26.631Z,2.10
2022-10-19T08:36:53.091Z,1.88
2022-10-19T08:39:19.568Z,1.40
2022-10-19T08:42:06.887Z,1.50
2022-10-19T08:45:06.397Z,3.17
2022-10-19T08:47:41.882Z,3.63
2022-10-19T08:50:32.906Z,3.17
2022-10-19T08:53:11.171Z,4.68
2022-10-19T08:55:55.026Z,5.15
2022-10-19T08:58:41.769Z,6.03
2022-10-19T09:01:16.959Z,3.40
2022-10-19T09:03:56.132Z,3.50
2022-10-19T09:06:44.913Z,4.40
2022-10-19T09:09:13.701Z,4.20
2022-10-19T09:11:46.164Z,5.07
2022-10-19T09:14:25.742Z,5.22
2022-10-19T09:16:54.635Z,6.45
2022-10-19T09:19:29.260Z,5.05
2022-10-19T09:21:59.490Z,4.88
2022-10-19T09:24:33.605Z,5.38
2022-10-19T09:27:01.578Z,5.60
2022-10-19T09:29:39.825Z,4.90
2022-10-19T09:32:14.415Z,5.85
2022-10-19T09:34:48.469Z,5.10
2022-10-19T09:37:23.197Z,5.72
2022-10-19T09:39:54.958Z,4.85
2022-10-19T09:42:37.030Z,2.97
2022-10-19T09:45:19.721Z,1.83
2022-10-19T09:47:48.626Z,2.03
2022-10-19T09:50:25.686Z,1.92
2022-10-19T09:53:02.550Z,2.20
2022-10-19T09:55:36.901Z,3.10
2022-10-19T09:58:27.019Z,2.83
2022-10-19T10:00:57.749Z,4.90
2022-10-19T10:03:36.338Z,5.60
2022-10-19T10:06:10.399Z,6.93
2022-10-19T10:08:39.711Z,5.65
2022-10-19T10:11:09.033Z,6.07
2022-10-19T10:13:41.657Z,5.70
2022-10-19T10:16:11.476Z,5.38
2022-10-19T10:21:27.212Z,5.78
2022-10-19T10:24:06.064Z,5.55
2022-10-19T10:26:40.092Z,5.38
2022-10-19T10:29:27.772Z,5.00
2022-10-19T10:32:05.035Z,4.72
2022-10-19T10:34:51.034Z,5.95
2022-10-19T10:37:30.576Z,6.75
2022-10-19T10:40:01.761Z,5.70
2022-10-19T10:42:36.881Z,6.22
2022-10-19T10:45:04.664Z,4.10
2022-10-19T10:47:31.427Z,3.08
2022-10-19T10:50:02.639Z,3.22
2022-10-19T10:52:31.363Z,3.33
2022-10-19T10:55:09.146Z,3.40
2022-10-19T10:57:40.769Z,6.93
2022-10-19T11:00:13.976Z,3.20
2022-10-19T11:03:08.048Z,5.93
2022-10-19T11:05:40.744Z,5.72
2022-10-19T11:08:19.379Z,6.45
2022-10-19T11:10:55.389Z,7.32
2022-10-19T11:13:29.842Z,6.40
2022-10-19T11:16:05.006Z,6.20
2022-10-19T11:18:38.028Z,6.32
2022-10-19T11:21:13.048Z,6.93
2022-10-19T11:23:52.144Z,6.40
2022-10-19T11:26:43.483Z,4.28
2022-10-19T11:29:31.852Z,7.30
2022-10-19T11:31:58.578Z,4.80
2022-10-19T11:34:27.892Z,5.18
2022-10-19T11:37:12.565Z,5.38
2022-10-19T11:39:57.250Z,4.80
2022-10-19T11:42:42.083Z,5.82
2022-10-19T11:45:45.980Z,5.43
2022-10-19T11:48:43.815Z,5.22
2022-10-19T11:51:40.745Z,2.88
2022-10-19T11:54:19.221Z,3.13
2022-10-19T11:57:11.833Z,3.07
2022-10-19T11:59:50.225Z,3.55
2022-10-19T12:02:39.958Z,3.85
2022-10-19T12:05:26.355Z,6.00
2022-10-19T12:11:01.604Z,4.90
2022-10-19T12:13:59.859Z,4.68
2022-10-19T12:16:49.948Z,7.38
2022-10-19T12:19:24.140Z,7.90
2022-10-19T12:21:55.039Z,6.53
2022-10-19T12:24:25.205Z,7.05
2022-10-19T12:26:54.811Z,6.13
2022-10-19T12:29:28.298Z,6.68
2022-10-19T12:31:57.676Z,7.55
2022-10-19T12:34:42.256Z,8.00
2022-10-19T12:37:15.968Z,8.10
2022-10-19T12:39:57.730Z,6.70
2022-10-19T12:42:36.116Z,6.78
2022-10-19T12:45:18.352Z,8.40
2022-10-19T12:48:12.625Z,8.98
2022-10-19T12:50:48.113Z,8.90
2022-10-19T12:56:05.864Z,8.77
2022-10-19T12:58:43.486Z,7.00
2022-10-19T13:01:24.677Z,6.47
2022-10-19T13:04:06.669Z,8.68
2022-10-19T13:06:40.817Z,7.20
2022-10-19T13:09:19.531Z,6.70
2022-10-19T13:12:21.400Z,7.38
2022-10-19T13:14:51.524Z,8.27
2022-10-19T13:17:36.915Z,8.13
2022-10-19T13:20:15.277Z,7.25
2022-10-19T13:22:45.013Z,8.63
2022-10-19T13:25:23.774Z,8.48
2022-10-19T13:27:52.264Z,7.68
2022-10-19T13:30:38.127Z,6.65
2022-10-19T13:33:28.487Z,6.50
2022-10-19T13:36:02.293Z,6.82
2022-10-19T13:38:28.842Z,7.70
2022-10-19T13:40:55.257Z,6.70
2022-10-19T13:43:32.553Z,7.53
2022-10-19T13:46:10.513Z,7.75
2022-10-19T13:49:01.475Z,9.25
2022-10-19T13:51:37.206Z,7.38
2022-10-19T13:54:27.978Z,6.13
2022-10-19T13:57:18.950Z,6.05
2022-10-19T14:00:07.211Z,5.57
2022-10-19T14:03:20.692Z,5.95
2022-10-19T14:06:02.260Z,6.18
2022-10-19T14:08:35.087Z,5.75
2022-10-19T14:11:20.399Z,5.80
2022-10-19T14:14:07.332Z,5.53
2022-10-19T14:16:33.729Z,5.60
2022-10-19T14:19:00.315Z,6.70
2022-10-19T14:21:32.512Z,5.28
2022-10-19T14:23:59.837Z,5.80
2022-10-19T14:26:31.696Z,5.47
2022-10-19T14:28:59.841Z,5.20
2022-10-19T14:31:35.073Z,6.03
2022-10-19T14:34:04.200Z,6.20
2022-10-19T14:36:37.952Z,6.40
2022-10-19T14:39:05.724Z,6.20
2022-10-19T14:41:32.670Z,5.60
2022-10-19T14:44:02.772Z,5.97
2022-10-19T14:46:31.200Z,6.70
2022-10-19T14:49:03.202Z,7.18
2022-10-19T14:52:01.063Z,7.53
2022-10-19T14:54:36.369Z,6.88
2022-10-19T14:57:15.822Z,6.30
2022-10-19T15:02:29.355Z,6.95
2022-10-19T15:04:59.195Z,6.38
2022-10-19T15:07:37.023Z,6.63
2022-10-19T15:10:08.103Z,7.20
2022-10-19T15:12:38.428Z,7.82
2022-10-19T15:15:16.524Z,8.68
2022-10-19T15:18:02.419Z,7.88
2022-10-19T15:20:44.031Z,6.90
2022-10-19T15:23:36.391Z,7.45
2022-10-19T15:26:17.375Z,7.55
2022-10-19T15:28:45.237Z,7.10
2022-10-19T15:31:29.151Z,6.90
2022-10-19T15:34:00.669Z,7.10
2022-10-19T15:36:29.564Z,6.95
2022-10-19T15:39:18.282Z,7.40
2022-10-19T15:41:51.354Z,5.10
2022-10-19T15:44:41.937Z,4.18
2022-10-19T15:47:14.576Z,4.65
2022-10-19T15:49:40.952Z,4.65
2022-10-19T15:52:15.967Z,6.40
2022-10-19T15:54:42.934Z,5.40
2022-10-19T15:57:25.094Z,4.50
2022-10-19T15:59:51.640Z,5.40
2022-10-19T16:02:18.111Z,6.47
2022-10-19T16:04:44.516Z,7.32
2022-10-19T16:07:16.692Z,6.93
2022-10-19T16:09:43.143Z,6.18
2022-10-19T16:12:11.208Z,5.13
2022-10-19T16:14:37.632Z,5.32
2022-10-19T16:17:04.649Z,6.03
2022-10-19T16:19:31.095Z,5.68
2022-10-19T16:21:57.580Z,5.80
2022-10-19T16:24:24.027Z,5.50
2022-10-19T16:26:50.510Z,6.28
2022-10-19T16:29:16.965Z,5.32
2022-10-19T16:31:43.359Z,5.93
2022-10-19T16:34:09.777Z,6.13
2022-10-19T16:36:36.247Z,6.20
2022-10-19T16:39:04.350Z,5.85
2022-10-19T16:41:31.393Z,5.55
2022-10-19T16:43:57.955Z,5.97
2022-10-19T16:46:24.994Z,6.35
2022-10-19T16:48:52.061Z,5.88
2022-10-19T16:51:26.133Z,5.82
2022-10-19T16:53:56.998Z,5.70
2022-10-19T16:56:24.648Z,6.22
2022-10-19T16:58:53.888Z,5.55
2022-10-19T17:01:20.547Z,5.38
2022-10-19T17:03:48.058Z,5.50
2022-10-19T17:06:15.946Z,5.47
2022-10-19T17:09:23.316Z,5.05
2022-10-19T17:11:31.978Z,4.93
2022-10-19T17:16:28.075Z,5.13
2022-10-19T17:18:56.429Z,5.00
2022-10-19T17:21:26.440Z,4.68
2022-10-19T17:23:58.943Z,5.13
2022-10-19T17:26:27.520Z,5.00
2022-10-19T17:28:55.109Z,5.05
2022-10-19T17:31:22.127Z,5.55
2022-10-19T17:33:51.428Z,4.70
2022-10-19T17:36:27.539Z,4.22
2022-10-19T17:38:55.191Z,5.50
2022-10-19T17:41:22.212Z,4.70
2022-10-19T17:43:51.772Z,4.93
2022-10-19T17:46:20.997Z,5.07
2022-10-19T17:48:48.343Z,4.60
2022-10-19T17:51:17.847Z,4.70
2022-10-19T17:53:45.648Z,4.68
2022-10-19T17:56:15.385Z,4.55
2022-10-19T17:58:42.731Z,4.75
2022-10-19T18:01:11.623Z,4.60
2022-10-19T18:03:39.259Z,4.35
2022-10-19T18:06:12.100Z,4.90
2022-10-19T18:08:41.676Z,4.38
2022-10-19T18:11:13.821Z,4.15
2022-10-19T18:13:41.314Z,4.43
2022-10-19T18:16:14.528Z,4.25
2022-10-19T18:18:43.105Z,4.00
2022-10-19T18:21:11.922Z,4.00
2022-10-19T18:23:39.276Z,4.25
2022-10-19T18:26:09.031Z,4.03
2022-10-19T18:28:35.855Z,4.28
2022-10-19T18:31:09.809Z,3.83
2022-10-19T18:33:36.780Z,4.10
2022-10-19T18:36:05.032Z,4.50
2022-10-19T18:38:32.886Z,4.43
2022-10-19T18:41:07.942Z,3.95
2022-10-19T18:43:34.524Z,4.13
2022-10-19T18:46:01.282Z,3.83
2022-10-19T18:48:29.840Z,4.25
2022-10-19T18:50:58.020Z,3.97
2022-10-19T18:53:25.745Z,4.20
2022-10-19T18:56:05.249Z,4.03
2022-10-19T18:58:32.387Z,3.75
2022-10-19T19:01:06.479Z,3.90
2022-10-19T19:03:33.513Z,4.18
2022-10-19T19:06:09.484Z,4.05
2022-10-19T19:08:36.164Z,3.97
2022-10-19T19:11:20.780Z,3.45
2022-10-19T19:13:53.739Z,3.80
2022-10-19T19:16:20.986Z,3.90
2022-10-19T19:18:47.854Z,4.18
2022-10-19T19:21:25.683Z,4.00
2022-10-19T19:23:54.176Z,4.03
2022-10-19T19:26:23.071Z,3.60
2022-10-19T19:28:51.647Z,4.45
2022-10-19T19:31:19.652Z,3.85
2022-10-19T19:33:47.387Z,3.80
2022-10-19T19:36:16.004Z,3.58
2022-10-19T19:38:42.752Z,3.92
2022-10-19T19:41:12.078Z,3.90
2022-10-19T19:43:39.589Z,3.40
2022-10-19T19:46:12.579Z,3.50
2022-10-19T19:48:40.754Z,3.78
2022-10-19T19:51:09.284Z,3.50
2022-10-19T19:53:36.887Z,3.53
2022-10-19T19:56:03.782Z,3.55
2022-10-19T19:58:30.246Z,3.42
2022-10-19T20:00:56.719Z,3.40
2022-10-19T20:03:23.323Z,3.60
2022-10-19T20:05:49.751Z,3.72
2022-10-19T20:08:16.358Z,4.90
2022-10-19T20:10:43.456Z,3.25
2022-10-19T20:13:10.153Z,3.33
2022-10-19T20:15:39.603Z,3.50
2022-10-19T20:20:32.704Z,5.93
2022-10-19T20:22:59.142Z,3.90
2022-10-19T20:25:25.680Z,3.20
2022-10-19T20:27:52.205Z,3.40
2022-10-19T20:30:18.760Z,3.42
2022-10-19T20:32:45.256Z,3.80
2022-10-19T20:35:11.800Z,3.72
2022-10-19T20:37:38.250Z,3.42
2022-10-19T20:40:08.572Z,3.38
2022-10-19T20:42:35.664Z,3.30
2022-10-19T20:45:02.406Z,3.50
2022-10-19T20:47:29.433Z,3.55
2022-10-19T20:49:56.086Z,5.30
2022-10-19T20:52:22.553Z,3.72
2022-10-19T20:54:49.260Z,3.38
2022-10-19T20:57:15.908Z,3.20
2022-10-19T20:59:43.893Z,3.38
2022-10-19T21:02:11.595Z,3.40
2022-10-19T21:04:38.066Z,3.00
2022-10-19T21:07:05.006Z,3.97
2022-10-19T21:09:32.003Z,3.50
2022-10-19T21:11:59.087Z,3.33
2022-10-19T21:14:28.790Z,3.70
2022-10-19T21:16:58.011Z,3.28
2022-10-19T21:19:25.879Z,3.92
2022-10-19T21:22:03.854Z,3.55
2022-10-19T21:24:35.513Z,3.25
2022-10-19T21:27:07.536Z,3.40
2022-10-19T21:29:34.246Z,3.67
2022-10-19T21:32:00.745Z,3.05
2022-10-19T21:34:28.866Z,5.68
2022-10-19T21:36:56.281Z,4.57
2022-10-19T21:39:22.811Z,3.38
2022-10-19T21:41:49.703Z,3.70
2022-10-19T21:44:17.789Z,3.40
2022-10-19T21:46:46.861Z,3.47
2022-10-19T21:49:13.661Z,3.67
2022-10-19T21:51:48.530Z,3.65
2022-10-19T21:54:17.774Z,3.20
2022-10-19T21:56:45.344Z,3.50
2022-10-19T21:59:12.360Z,3.70
2022-10-19T22:01:41.084Z,3.75
2022-10-19T22:04:12.627Z,3.05
2022-10-19T22:06:39.760Z,4.05
2022-10-19T22:09:08.615Z,3.20
2022-10-19T22:11:35.204Z,3.50
2022-10-19T22:14:04.079Z,3.95
2022-10-19T22:16:32.356Z,3.63
2022-10-19T22:18:59.177Z,3.45
2022-10-19T22:21:28.953Z,3.65
2022-10-19T22:23:57.773Z,3.33
2022-10-19T22:26:27.361Z,3.45
2022-10-19T22:28:55.665Z,3.33
2022-10-19T22:31:22.224Z,3.10
2022-10-19T22:33:48.815Z,3.42
2022-10-19T22:36:16.074Z,3.95
2022-10-19T22:38:42.491Z,5.55
2022-10-19T22:41:09.039Z,3.60
2022-10-19T22:43:35.459Z,3.80
2022-10-19T22:46:01.948Z,3.40
2022-10-19T22:48:28.314Z,4.55
2022-10-19T22:50:55.684Z,3.88
2022-10-19T22:53:23.300Z,4.07
2022-10-19T22:55:50.376Z,3.95
2022-10-19T22:58:17.253Z,3.63
2022-10-19T23:00:43.667Z,3.40
2022-10-19T23:03:13.772Z,3.50
2022-10-19T23:05:40.204Z,5.00
2022-10-19T23:08:06.591Z,3.38
2022-10-19T23:10:33.299Z,3.65
2022-10-19T23:12:59.727Z,2.88
2022-10-19T23:15:26.242Z,3.30
2022-10-19T23:17:52.691Z,3.47
2022-10-19T23:20:19.116Z,3.45
2022-10-19T23:22:45.530Z,3.55
2022-10-19T23:25:11.925Z,3.38
2022-10-19T23:27:38.731Z,2.90
2022-10-19T23:30:05.652Z,3.28
2022-10-19T23:32:32.091Z,3.13
2022-10-19T23:34:58.508Z,3.28
2022-10-19T23:37:24.882Z,3.25
2022-10-19T23:39:51.276Z,3.50
2022-10-19T23:42:17.827Z,3.15
2022-10-19T23:44:44.225Z,3.30
2022-10-19T23:47:10.691Z,3.10
2022-10-19T23:49:37.093Z,3.30
2022-10-19T23:52:03.693Z,3.00
2022-10-19T23:54:30.180Z,3.20
2022-10-19T23:56:56.670Z,3.30
2022-10-19T23:59:23.155Z,2.97
